Winnipeg / James Armstrong Richardson International Airport (YWG/CYWG)


Airport Information
Location: Winnipeg,
Coordinates: 49.91 / -97.2399
Field Elevation: 763ft
Longest Runway: 11,018ft
ILS Approaches: YES
Landing Fees: $735 per flight
Jet A Price: $0.40/lbs

Current Weather
METAR:
Not available
TAF: TAF AMD CYWG 010959Z 0109/0206 05008KT 5SM BR OVC006 TEMPO 0109/0115 P6SM NSW BKN012 FM011500 06012KT P6SM FEW020 FM012100 07010KT P6SM SCT030 FM020300 12008KT P6SM BKN080 RMK NXT FCST BY 011200Z

No chart available
Flight Arriving
CPX353 KRFD - Chicago/Rockford International Airport
United StatesIllinois Rockford, Illinois
Flight Aircraft Departing
CPX333
KRFD - Chicago/Rockford International Airport
United StatesIllinois Rockford, Illinois



Recent Arrivals
Date Flight Type Depart
07/22/2022 CPX333 B763 Chicago/Rockford Intl (KRFD)
04/24/2022 CPX1853 B763 John C. Munro Hamilton Intl (CYHM)
11/23/2021 CPX1873 B763 Edmonton Intl (CYEG)
11/06/2021 CPX1873 B752 Edmonton Intl (CYEG)
10/09/2021 CPX1873 B752 Edmonton Intl (CYEG)
Recent Departures
Date Flight Type Arrive
07/23/2022 CPX353 B763 Chicago/Rockford Intl (KRFD)
06/13/2022 CPX1854 B763 Edmonton Intl (CYEG)
11/23/2021 CPX1854 B763 Edmonton Intl (CYEG)
11/06/2021 CPX1874 B752 John C. Munro Hamilton Intl (CYHM)
10/12/2021 CPX1874 B752 John C. Munro Hamilton Intl (CYHM)